Mostly Cloudy Current Weather (METAR) For Manchester Airport

All times on the weather descriptions are local

Observed at 17:20 - (24 mins ago)

Mostly Cloudy

13°C

Mostly Cloudy
Clouds: Few Clouds at 2,800ft, Scattered Clouds at 4,200ft, Broken Clouds at 4,900ft
Wind: 230° at 15 knots
Visibility: Greater than 10km
QNH: 1014
Dew Point: 8°C
Runway in Use: Runways 23L/R

Sunrise Today: 07:53
Sunset Today: 17:52

Forecast Weather (TAF) For Manchester Airport

Issued at 01:00 - (5 days 7 hrs ago)


Runway in Use: Likely Runways 23L/R

Forecast valid until 01:00 on Friday

METAR/TAF RAW METAR / TAF

EGCC 251620Z 23015KT 9999 FEW028 SCT042 BKN049 13/08 Q1014 NOSIG

Weather Widget

Put weather from any of our airports on your website with our weather widget.

Find Another Search

Airport Search


Please Wait Please Wait - Loading
Close
Close

Login

Username:

Password:

Remember Me:

Remember me on this computer

Forgotten your password? Get a reset password sent to your registered e-mail address

Close

User Private Message

Subject:

Message: